createdAt,value
2023-05-11T00:02:05.946Z,12.10
2023-05-11T00:07:07.706Z,12.20
2023-05-11T00:12:09.349Z,12.20
2023-05-11T00:17:11.859Z,12.20
2023-05-11T00:22:13.545Z,12.20
2023-05-11T00:27:15.372Z,12.20
2023-05-11T00:32:17.032Z,12.10
2023-05-11T00:37:18.679Z,12.10
2023-05-11T00:42:20.446Z,12.10
2023-05-11T00:47:22.398Z,12.20
2023-05-11T00:52:24.629Z,12.20
2023-05-11T00:57:27.135Z,12.20
2023-05-11T01:02:29.645Z,12.20
2023-05-11T01:07:40.670Z,12.10
2023-05-11T01:13:32.712Z,12.00
2023-05-11T01:18:59.802Z,12.10
2023-05-11T01:24:21.235Z,12.00
2023-05-11T01:29:44.444Z,12.00
2023-05-11T01:34:47.269Z,12.00
2023-05-11T01:39:57.665Z,11.90
2023-05-11T01:45:01.917Z,11.90
2023-05-11T01:50:06.120Z,12.00
2023-05-11T01:55:10.188Z,12.10
2023-05-11T02:00:16.035Z,12.00
2023-05-11T02:05:22.476Z,12.00
2023-05-11T02:10:26.761Z,11.90
2023-05-11T02:15:29.046Z,11.90
2023-05-11T02:20:31.832Z,11.70
2023-05-11T02:25:33.957Z,11.60
2023-05-11T02:30:42.786Z,11.60
2023-05-11T02:35:45.992Z,11.50
2023-05-11T02:40:51.849Z,11.50
2023-05-11T02:46:08.803Z,11.40
2023-05-11T02:51:12.433Z,11.40
2023-05-11T02:56:14.846Z,11.40
2023-05-11T03:01:17.449Z,11.30
2023-05-11T03:06:19.176Z,11.40
2023-05-11T03:11:22.110Z,11.40
2023-05-11T03:16:24.489Z,11.50
2023-05-11T03:21:26.775Z,11.70
2023-05-11T03:26:32.034Z,11.90
2023-05-11T03:31:33.892Z,12.00
2023-05-11T03:36:36.381Z,12.10
2023-05-11T03:41:39.821Z,12.10
2023-05-11T03:46:44.522Z,12.10
2023-05-11T03:51:47.560Z,12.10
2023-05-11T03:56:49.244Z,12.10
2023-05-11T04:01:53.085Z,11.90
2023-05-11T04:06:54.759Z,12.00
2023-05-11T04:11:56.421Z,12.10
2023-05-11T04:16:58.053Z,12.10
2023-05-11T04:21:59.707Z,12.10
2023-05-11T04:27:01.415Z,12.10
2023-05-11T04:32:03.151Z,12.20
2023-05-11T04:37:07.325Z,12.20
2023-05-11T04:42:09.044Z,12.30
2023-05-11T04:47:10.741Z,12.40
2023-05-11T04:52:12.385Z,12.30
2023-05-11T04:57:14.051Z,12.40
2023-05-11T05:02:15.702Z,12.20
2023-05-11T05:07:17.432Z,12.30
2023-05-11T05:12:19.242Z,12.20
2023-05-11T05:17:20.964Z,12.30
2023-05-11T05:22:23.075Z,12.40
2023-05-11T05:27:24.730Z,12.40
2023-05-11T05:32:27.192Z,12.50
2023-05-11T05:37:29.421Z,12.50
2023-05-11T05:42:31.264Z,12.50
2023-05-11T05:47:33.039Z,12.60
2023-05-11T05:52:34.814Z,12.80
2023-05-11T05:57:36.540Z,12.70
2023-05-11T06:02:39.424Z,12.70
2023-05-11T06:07:41.216Z,12.90
2023-05-11T06:12:42.948Z,12.90
2023-05-11T06:17:44.623Z,12.60
2023-05-11T06:22:46.368Z,12.80
2023-05-11T06:27:48.040Z,12.90
2023-05-11T06:32:49.827Z,12.90
2023-05-11T06:37:51.761Z,13.00
2023-05-11T06:42:53.446Z,13.00
2023-05-11T06:47:55.301Z,12.80
2023-05-11T06:52:57.093Z,12.90
2023-05-11T06:57:58.766Z,12.90
2023-05-11T07:03:00.516Z,12.90
2023-05-11T07:08:02.654Z,13.20
2023-05-11T07:13:05.340Z,13.20
2023-05-11T07:18:07.111Z,13.50
2023-05-11T07:23:08.954Z,13.70
2023-05-11T07:28:10.759Z,14.00
2023-05-11T07:33:12.472Z,14.20
2023-05-11T07:38:14.133Z,14.80
2023-05-11T07:43:15.893Z,14.90
2023-05-11T07:48:18.102Z,15.00
2023-05-11T07:53:19.790Z,15.40
2023-05-11T07:58:21.462Z,15.40
2023-05-11T08:03:23.441Z,15.30
2023-05-11T08:08:25.965Z,15.40
2023-05-11T08:13:28.296Z,15.70
2023-05-11T08:18:30.123Z,15.80
2023-05-11T08:23:31.878Z,15.70
2023-05-11T08:28:33.554Z,15.70
2023-05-11T08:33:38.150Z,15.70
2023-05-11T08:38:40.618Z,15.70
2023-05-11T08:43:45.894Z,15.50
2023-05-11T08:48:48.057Z,15.70
2023-05-11T08:53:49.752Z,16.00
2023-05-11T08:58:55.399Z,16.40
2023-05-11T09:03:58.412Z,16.10
2023-05-11T09:09:00.904Z,16.40
2023-05-11T09:14:03.316Z,16.90
2023-05-11T09:19:05.604Z,17.00
2023-05-11T09:24:07.524Z,16.70
2023-05-11T09:29:09.362Z,16.50
2023-05-11T09:34:19.528Z,16.30
2023-05-11T09:39:42.070Z,16.40
2023-05-11T09:44:49.287Z,16.10
2023-05-11T09:49:51.069Z,15.90
2023-05-11T09:54:52.930Z,15.90
2023-05-11T09:59:56.412Z,16.00
2023-05-11T10:05:00.316Z,16.10
2023-05-11T10:10:04.663Z,15.90
2023-05-11T10:15:09.277Z,16.00
2023-05-11T10:20:12.514Z,16.00
2023-05-11T10:25:15.895Z,16.10
2023-05-11T10:30:17.964Z,15.80
2023-05-11T10:35:21.100Z,15.80
2023-05-11T10:40:23.728Z,15.60
2023-05-11T10:45:53.625Z,15.10
2023-05-11T10:51:18.204Z,15.30
2023-05-11T10:56:35.244Z,15.30
2023-05-11T11:01:41.257Z,15.40
2023-05-11T11:06:43.957Z,15.60
2023-05-11T11:11:47.201Z,15.40
2023-05-11T11:17:17.088Z,15.30
2023-05-11T11:22:41.823Z,15.30
2023-05-11T11:27:49.484Z,15.60
2023-05-11T11:32:54.143Z,15.90
2023-05-11T11:38:03.116Z,16.20
2023-05-11T11:43:22.864Z,16.00
2023-05-11T11:48:36.152Z,16.40
2023-05-11T11:53:38.216Z,16.90
2023-05-11T11:58:46.177Z,17.70
2023-05-11T12:04:09.467Z,18.60
2023-05-11T12:09:11.505Z,19.40
2023-05-11T12:14:13.334Z,19.20
2023-05-11T12:19:24.483Z,19.40
2023-05-11T12:24:26.700Z,20.00
2023-05-11T12:29:28.456Z,20.10
2023-05-11T12:34:30.366Z,20.10
2023-05-11T12:39:32.071Z,19.60
2023-05-11T12:44:34.013Z,18.50
2023-05-11T12:49:35.768Z,17.50
2023-05-11T12:54:40.086Z,16.40
2023-05-11T12:59:41.823Z,16.00
2023-05-11T13:04:44.732Z,15.70
2023-05-11T13:09:59.345Z,15.50
2023-05-11T13:15:12.852Z,15.40
2023-05-11T13:20:29.805Z,15.30
2023-05-11T13:25:32.681Z,15.50
2023-05-11T13:30:35.309Z,15.70
2023-05-11T13:35:43.852Z,15.60
2023-05-11T13:40:45.811Z,15.30
2023-05-11T13:45:47.527Z,15.70
2023-05-11T13:50:49.186Z,15.90
2023-05-11T13:55:50.971Z,15.70
2023-05-11T14:01:06.576Z,15.40
2023-05-11T14:06:10.014Z,14.80
2023-05-11T14:11:11.680Z,14.80
2023-05-11T14:16:13.676Z,15.30
2023-05-11T14:21:15.989Z,15.70
2023-05-11T14:26:17.710Z,15.90
2023-05-11T14:31:19.447Z,16.10
2023-05-11T14:36:21.330Z,16.50
2023-05-11T14:41:23.204Z,16.90
2023-05-11T14:46:26.694Z,17.30
2023-05-11T14:51:28.739Z,17.40
2023-05-11T14:56:30.618Z,16.90
2023-05-11T15:01:32.426Z,16.90
2023-05-11T15:06:34.447Z,17.60
2023-05-11T15:11:37.447Z,18.50
2023-05-11T15:16:39.137Z,18.60
2023-05-11T15:21:40.820Z,19.30
2023-05-11T15:26:42.591Z,19.90
2023-05-11T15:31:44.263Z,19.60
2023-05-11T15:36:48.449Z,19.40
2023-05-11T15:41:50.126Z,19.30
2023-05-11T15:46:51.855Z,19.60
2023-05-11T15:51:53.838Z,19.20
2023-05-11T15:56:55.676Z,18.90
2023-05-11T16:01:57.304Z,18.80
2023-05-11T16:06:59.195Z,18.60
2023-05-11T16:12:01.098Z,18.40
2023-05-11T16:17:03.047Z,18.90
2023-05-11T16:22:04.848Z,19.20
2023-05-11T16:27:06.569Z,19.00
2023-05-11T16:32:08.326Z,18.90
2023-05-11T16:37:10.224Z,19.20
2023-05-11T16:42:12.049Z,19.30
2023-05-11T16:47:13.761Z,19.10
2023-05-11T16:52:17.337Z,19.30
2023-05-11T16:57:19.064Z,19.30
2023-05-11T17:02:21.263Z,19.20
2023-05-11T17:07:23.018Z,19.00
2023-05-11T17:12:24.753Z,18.70
2023-05-11T17:17:27.520Z,18.20
2023-05-11T17:22:29.725Z,17.80
2023-05-11T17:27:32.111Z,17.40
2023-05-11T17:32:34.301Z,17.00
2023-05-11T17:37:36.395Z,16.60
2023-05-11T17:42:38.770Z,16.50
2023-05-11T17:47:40.510Z,16.30
2023-05-11T17:52:42.224Z,16.10
2023-05-11T17:57:43.952Z,16.00
2023-05-11T18:02:48.991Z,15.60
2023-05-11T18:07:51.103Z,15.50
2023-05-11T18:12:52.798Z,15.10
2023-05-11T18:17:54.970Z,14.70
2023-05-11T18:22:56.922Z,14.50
2023-05-11T18:28:02.332Z,14.60
2023-05-11T18:33:04.194Z,14.30
2023-05-11T18:38:06.453Z,14.40
2023-05-11T18:43:08.603Z,14.40
2023-05-11T18:48:10.338Z,14.10
2023-05-11T18:53:12.041Z,13.90
2023-05-11T18:58:13.691Z,13.70
2023-05-11T19:03:16.290Z,13.60
2023-05-11T19:08:18.579Z,13.40
2023-05-11T19:13:20.309Z,13.00
2023-05-11T19:18:22.046Z,13.10
2023-05-11T19:23:23.807Z,13.20
2023-05-11T19:28:25.990Z,13.00
2023-05-11T19:33:27.949Z,12.80
2023-05-11T19:38:29.680Z,12.80
2023-05-11T19:43:31.388Z,12.90
2023-05-11T19:48:33.111Z,12.80
2023-05-11T19:53:34.993Z,12.70
2023-05-11T19:58:36.669Z,12.80
2023-05-11T20:03:38.507Z,12.80
2023-05-11T20:08:40.307Z,12.70
2023-05-11T20:13:43.877Z,12.50
2023-05-11T20:18:45.558Z,12.60
2023-05-11T20:23:47.264Z,12.70
2023-05-11T20:28:49.066Z,12.80
2023-05-11T20:38:55.494Z,12.60
2023-05-11T20:43:57.293Z,12.50
2023-05-11T20:48:58.951Z,12.60
2023-05-11T20:54:00.795Z,12.60
2023-05-11T20:59:02.458Z,12.70
2023-05-11T21:04:04.345Z,12.70
2023-05-11T21:09:06.583Z,12.70
2023-05-11T21:14:08.441Z,12.70
2023-05-11T21:19:10.113Z,12.80
2023-05-11T21:24:13.850Z,12.60
2023-05-11T21:29:15.561Z,12.60
2023-05-11T21:34:17.908Z,12.60
2023-05-11T21:39:19.553Z,12.50
2023-05-11T21:44:21.197Z,12.50
2023-05-11T21:49:23.055Z,12.50
2023-05-11T21:54:25.080Z,12.50
2023-05-11T21:59:27.500Z,12.40
2023-05-11T22:04:30.425Z,12.00
2023-05-11T22:09:32.158Z,12.10
2023-05-11T22:14:33.806Z,12.20
2023-05-11T22:19:35.483Z,12.10
2023-05-11T22:24:37.206Z,12.20
2023-05-11T22:29:38.967Z,12.20
2023-05-11T22:34:40.698Z,12.30
2023-05-11T22:39:42.378Z,12.40
2023-05-11T22:44:44.265Z,12.40
2023-05-11T22:49:46.191Z,12.30
2023-05-11T22:54:47.942Z,12.50
2023-05-11T22:59:49.764Z,12.60
2023-05-11T23:04:52.900Z,12.50
2023-05-11T23:09:55.598Z,12.50
2023-05-11T23:14:57.314Z,12.60
2023-05-11T23:19:59.015Z,12.70
2023-05-11T23:25:00.823Z,12.70
2023-05-11T23:30:02.527Z,12.60
2023-05-11T23:35:04.533Z,12.70
2023-05-11T23:40:08.396Z,12.70
2023-05-11T23:45:10.659Z,12.60
2023-05-11T23:50:13.133Z,12.60
2023-05-11T23:55:14.848Z,12.60
